GOPTI EGBO-EGBO
Flight info
| Callsign | GOPTI |
|---|---|
| Flight time | 0h 27m |
| Altitude | 3000 |
| Route | EGBO VFR EGBO |
| Aircraft | PA24/L-SDGRY/S |
Departure
| Time | 2026-04-25 19:26 |
|---|---|
| Airport | Wolverhampton Halfpenny Green Airport (EGBO) |
Arrival
| Time | 2026-04-25 19:54 |
|---|---|
| Airport | Wolverhampton Halfpenny Green Airport (EGBO) |
| Time | Latitude | Longitude | Altitude | Speed | Heading |
|---|---|---|---|---|---|
| 2026-04-25 19:02 | 52.38193 | -1.35156 | 1276 ft | 74 kts | 151° |
| 2026-04-25 19:03 | 52.37585 | -1.34654 | 1272 ft | 73 kts | 149° |
| 2026-04-25 19:03 | 52.36788 | -1.34274 | 1273 ft | 79 kts | 192° |
| 2026-04-25 19:03 | 52.36214 | -1.34348 | 1287 ft | 88 kts | 181° |
| 2026-04-25 19:04 | 52.34868 | -1.34460 | 1292 ft | 105 kts | 182° |
| 2026-04-25 19:04 | 52.34118 | -1.34524 | 1288 ft | 111 kts | 182° |
| 2026-04-25 19:05 | 52.32532 | -1.34652 | 1273 ft | 116 kts | 181° |
| 2026-04-25 19:05 | 52.30924 | -1.34767 | 1271 ft | 114 kts | 180° |
| 2026-04-25 19:05 | 52.30133 | -1.34823 | 1279 ft | 113 kts | 180° |
| 2026-04-25 19:06 | 52.29347 | -1.34969 | 1281 ft | 116 kts | 198° |
| 2026-04-25 19:06 | 52.27926 | -1.36211 | 1290 ft | 116 kts | 209° |
| 2026-04-25 19:06 | 52.27228 | -1.36861 | 1286 ft | 115 kts | 210° |
| 2026-04-25 19:07 | 52.25841 | -1.38163 | 1284 ft | 115 kts | 209° |
| 2026-04-25 19:07 | 52.25152 | -1.38810 | 1284 ft | 114 kts | 209° |
| 2026-04-25 19:08 | 52.23817 | -1.40203 | 1280 ft | 114 kts | 227° |
| 2026-04-25 19:08 | 52.23330 | -1.41222 | 1284 ft | 113 kts | 241° |
| 2026-04-25 19:09 | 52.22379 | -1.44205 | 1279 ft | 89 kts | 243° |
| 2026-04-25 19:09 | 52.22291 | -1.44493 | 1278 ft | 87 kts | 243° |
| 2026-04-25 19:09 | 52.21626 | -1.46693 | 1278 ft | 75 kts | 243° |
| 2026-04-25 19:10 | 52.21403 | -1.47427 | 1283 ft | 72 kts | 237° |
| 2026-04-25 19:10 | 52.21130 | -1.48150 | 1407 ft | 69 kts | 231° |
| 2026-04-25 19:10 | 52.20857 | -1.48890 | 1467 ft | 77 kts | 248° |
| 2026-04-25 19:10 | 52.20634 | -1.49659 | 1577 ft | 79 kts | 244° |
| 2026-04-25 19:11 | 52.20408 | -1.50448 | 1638 ft | 77 kts | 244° |
| 2026-04-25 19:11 | 52.20226 | -1.51307 | 1597 ft | 78 kts | 254° |
| 2026-04-25 19:11 | 52.20087 | -1.52175 | 1549 ft | 84 kts | 255° |
| 2026-04-25 19:11 | 52.19923 | -1.53164 | 1442 ft | 96 kts | 254° |
| 2026-04-25 19:12 | 52.19762 | -1.54286 | 1331 ft | 103 kts | 257° |
| 2026-04-25 19:12 | 52.19610 | -1.55404 | 1316 ft | 101 kts | 258° |
| 2026-04-25 19:12 | 52.19507 | -1.56158 | 1275 ft | 104 kts | 258° |
| 2026-04-25 19:12 | 52.19343 | -1.57296 | 1239 ft | 103 kts | 257° |
| 2026-04-25 19:13 | 52.19145 | -1.58806 | 1108 ft | 105 kts | 264° |
| 2026-04-25 19:13 | 52.19128 | -1.59619 | 1034 ft | 104 kts | 270° |
| 2026-04-25 19:13 | 52.19103 | -1.60764 | 814 ft | 106 kts | 267° |
| 2026-04-25 19:13 | 52.19019 | -1.61975 | 722 ft | 106 kts | 264° |
| 2026-04-25 19:14 | 52.19120 | -1.63114 | 643 ft | 100 kts | 311° |
| 2026-04-25 19:14 | 52.19463 | -1.63556 | 627 ft | 92 kts | 329° |
| 2026-04-25 19:14 | 52.20222 | -1.63920 | 554 ft | 82 kts | 0° |
| 2026-04-25 19:14 | 52.20776 | -1.63898 | 540 ft | 80 kts | 19° |
| 2026-04-25 19:15 | 52.21057 | -1.63205 | 510 ft | 80 kts | 87° |
| 2026-04-25 19:15 | 52.21052 | -1.62303 | 493 ft | 80 kts | 89° |
| 2026-04-25 19:15 | 52.20694 | -1.61649 | 334 ft | 94 kts | 172° |
| 2026-04-25 19:15 | 52.20106 | -1.61580 | 259 ft | 83 kts | 169° |
| 2026-04-25 19:16 | 52.19555 | -1.61471 | 165 ft | 76 kts | 168° |
| 2026-04-25 19:16 | 52.19083 | -1.61416 | 164 ft | 74 kts | 181° |
| 2026-04-25 19:16 | 52.18551 | -1.61401 | 289 ft | 78 kts | 172° |
| 2026-04-25 19:16 | 52.17995 | -1.61338 | 421 ft | 78 kts | 164° |
| 2026-04-25 19:17 | 52.17679 | -1.60808 | 527 ft | 71 kts | 86° |
| 2026-04-25 19:17 | 52.17652 | -1.59981 | 596 ft | 72 kts | 72° |
| 2026-04-25 19:17 | 52.18126 | -1.59732 | 733 ft | 81 kts | 353° |
| 2026-04-25 19:17 | 52.18734 | -1.59853 | 832 ft | 89 kts | 353° |
| 2026-04-25 19:18 | 52.19008 | -1.60685 | 913 ft | 102 kts | 266° |
| 2026-04-25 19:18 | 52.19009 | -1.61817 | 1022 ft | 97 kts | 272° |
| 2026-04-25 19:18 | 52.19015 | -1.62885 | 1093 ft | 97 kts | 271° |
| 2026-04-25 19:18 | 52.19028 | -1.64021 | 1086 ft | 103 kts | 272° |
| 2026-04-25 19:19 | 52.19043 | -1.65218 | 1078 ft | 107 kts | 269° |
| 2026-04-25 19:19 | 52.18793 | -1.66366 | 1073 ft | 108 kts | 247° |
| 2026-04-25 19:19 | 52.18484 | -1.67481 | 1073 ft | 108 kts | 245° |
| 2026-04-25 19:19 | 52.18276 | -1.68211 | 1073 ft | 107 kts | 245° |
| 2026-04-25 19:20 | 52.17834 | -1.69726 | 1073 ft | 107 kts | 245° |
| 2026-04-25 19:20 | 52.17512 | -1.70823 | 1072 ft | 107 kts | 244° |
| 2026-04-25 19:20 | 52.17190 | -1.71923 | 1070 ft | 107 kts | 244° |
| 2026-04-25 19:20 | 52.16873 | -1.73004 | 1069 ft | 107 kts | 244° |
| 2026-04-25 19:21 | 52.16552 | -1.74101 | 1069 ft | 107 kts | 244° |
| 2026-04-25 19:21 | 52.15912 | -1.76283 | 1066 ft | 106 kts | 244° |
| 2026-04-25 19:21 | 52.15592 | -1.77371 | 1068 ft | 106 kts | 245° |
| 2026-04-25 19:22 | 52.15270 | -1.78453 | 1068 ft | 106 kts | 244° |
| 2026-04-25 19:22 | 52.14948 | -1.79530 | 1067 ft | 106 kts | 244° |
| 2026-04-25 19:22 | 52.14636 | -1.81764 | 1060 ft | 104 kts | 291° |
| 2026-04-25 19:23 | 52.14915 | -1.82852 | 1069 ft | 104 kts | 295° |
| 2026-04-25 19:23 | 52.15553 | -1.84972 | 1070 ft | 104 kts | 297° |
| 2026-04-25 19:23 | 52.15885 | -1.86024 | 1064 ft | 105 kts | 298° |
| 2026-04-25 19:24 | 52.16218 | -1.87064 | 1063 ft | 105 kts | 298° |
| 2026-04-25 19:24 | 52.16557 | -1.88115 | 1063 ft | 105 kts | 298° |
| 2026-04-25 19:24 | 52.17238 | -1.90216 | 1062 ft | 105 kts | 298° |
| 2026-04-25 19:25 | 52.17920 | -1.92316 | 1059 ft | 105 kts | 298° |
| 2026-04-25 19:25 | 52.18261 | -1.93365 | 1059 ft | 105 kts | 298° |
| 2026-04-25 19:25 | 52.18602 | -1.94416 | 1059 ft | 105 kts | 298° |
| 2026-04-25 19:26 | 52.18943 | -1.95465 | 1059 ft | 105 kts | 298° |
| 2026-04-25 19:26 | 52.19285 | -1.96515 | 1059 ft | 105 kts | 298° |
| 2026-04-25 19:26 | 52.19626 | -1.97566 | 1064 ft | 105 kts | 298° |
| 2026-04-25 19:26 | 52.19979 | -1.98603 | 1060 ft | 105 kts | 306° |
| 2026-04-25 19:27 | 52.20362 | -1.99098 | 1061 ft | 104 kts | 327° |
| 2026-04-25 19:27 | 52.21012 | -1.99594 | 1064 ft | 103 kts | 343° |
| 2026-04-25 19:27 | 52.21926 | -2.00043 | 1070 ft | 104 kts | 344° |
| 2026-04-25 19:27 | 52.22621 | -2.00365 | 1069 ft | 104 kts | 345° |
| 2026-04-25 19:28 | 52.23320 | -2.00681 | 1066 ft | 104 kts | 345° |
| 2026-04-25 19:28 | 52.24020 | -2.00994 | 1065 ft | 104 kts | 345° |
| 2026-04-25 19:28 | 52.24723 | -2.01307 | 1065 ft | 104 kts | 345° |
| 2026-04-25 19:28 | 52.25425 | -2.01618 | 1065 ft | 104 kts | 345° |
| 2026-04-25 19:29 | 52.26125 | -2.01929 | 1065 ft | 105 kts | 345° |
| 2026-04-25 19:29 | 52.26827 | -2.02239 | 1063 ft | 105 kts | 344° |
| 2026-04-25 19:29 | 52.27534 | -2.02539 | 1062 ft | 105 kts | 345° |
| 2026-04-25 19:29 | 52.28242 | -2.02836 | 1062 ft | 105 kts | 345° |
| 2026-04-25 19:30 | 52.28950 | -2.03132 | 1064 ft | 105 kts | 345° |
| 2026-04-25 19:30 | 52.29657 | -2.03427 | 1066 ft | 105 kts | 345° |
| 2026-04-25 19:30 | 52.30365 | -2.03721 | 1067 ft | 105 kts | 345° |
| 2026-04-25 19:30 | 52.31073 | -2.04014 | 1070 ft | 105 kts | 345° |
| 2026-04-25 19:31 | 52.31784 | -2.04311 | 1069 ft | 106 kts | 345° |
| 2026-04-25 19:31 | 52.32501 | -2.04608 | 1069 ft | 106 kts | 345° |
| 2026-04-25 19:31 | 52.33215 | -2.04906 | 1068 ft | 106 kts | 345° |
| 2026-04-25 19:31 | 52.33937 | -2.05202 | 1068 ft | 107 kts | 345° |
| 2026-04-25 19:32 | 52.34645 | -2.05496 | 1066 ft | 106 kts | 345° |
| 2026-04-25 19:32 | 52.35351 | -2.05848 | 1064 ft | 106 kts | 334° |
| 2026-04-25 19:32 | 52.36006 | -2.06395 | 1067 ft | 106 kts | 331° |
| 2026-04-25 19:32 | 52.36443 | -2.06782 | 1065 ft | 106 kts | 330° |
| 2026-04-25 19:33 | 52.37300 | -2.07561 | 1068 ft | 107 kts | 330° |
| 2026-04-25 19:33 | 52.37949 | -2.08158 | 1065 ft | 107 kts | 329° |
| 2026-04-25 19:33 | 52.38599 | -2.08757 | 1063 ft | 107 kts | 329° |
| 2026-04-25 19:33 | 52.39245 | -2.09356 | 1064 ft | 107 kts | 329° |
| 2026-04-25 19:34 | 52.39893 | -2.09958 | 1068 ft | 107 kts | 329° |
| 2026-04-25 19:34 | 52.40538 | -2.10566 | 1068 ft | 107 kts | 329° |
| 2026-04-25 19:34 | 52.41178 | -2.11173 | 1135 ft | 101 kts | 328° |
| 2026-04-25 19:34 | 52.41766 | -2.11822 | 1110 ft | 106 kts | 321° |
| 2026-04-25 19:35 | 52.42337 | -2.12510 | 1178 ft | 101 kts | 323° |
| 2026-04-25 19:35 | 52.42916 | -2.13173 | 1212 ft | 102 kts | 324° |
| 2026-04-25 19:35 | 52.43508 | -2.13864 | 1208 ft | 104 kts | 322° |
| 2026-04-25 19:35 | 52.44094 | -2.14563 | 1204 ft | 105 kts | 323° |
| 2026-04-25 19:36 | 52.44697 | -2.15238 | 1209 ft | 105 kts | 325° |
| 2026-04-25 19:36 | 52.45287 | -2.15872 | 1210 ft | 98 kts | 324° |
| 2026-04-25 19:36 | 52.45909 | -2.16466 | 996 ft | 110 kts | 335° |
| 2026-04-25 19:36 | 52.46546 | -2.17021 | 1002 ft | 97 kts | 329° |
| 2026-04-25 19:37 | 52.47117 | -2.16782 | 936 ft | 94 kts | 57° |
| 2026-04-25 19:37 | 52.47020 | -2.15774 | 795 ft | 98 kts | 134° |
| 2026-04-25 19:37 | 52.46411 | -2.15559 | 752 ft | 94 kts | 201° |
| 2026-04-25 19:37 | 52.46172 | -2.16444 | 676 ft | 94 kts | 290° |
| 2026-04-25 19:38 | 52.46667 | -2.16990 | 664 ft | 86 kts | 357° |
| 2026-04-25 19:38 | 52.47131 | -2.16534 | 648 ft | 81 kts | 67° |
| 2026-04-25 19:38 | 52.47000 | -2.15729 | 626 ft | 78 kts | 141° |
| 2026-04-25 19:38 | 52.46506 | -2.15749 | 684 ft | 77 kts | 217° |
| 2026-04-25 19:39 | 52.46375 | -2.16543 | 814 ft | 78 kts | 282° |
| 2026-04-25 19:39 | 52.46673 | -2.17258 | 938 ft | 79 kts | 328° |
| 2026-04-25 19:39 | 52.47222 | -2.17268 | 1026 ft | 84 kts | 32° |
| 2026-04-25 19:39 | 52.47419 | -2.16421 | 1143 ft | 85 kts | 104° |
| 2026-04-25 19:40 | 52.46975 | -2.15834 | 1220 ft | 91 kts | 172° |
| 2026-04-25 19:40 | 52.46379 | -2.16074 | 1365 ft | 89 kts | 211° |
| 2026-04-25 19:40 | 52.46001 | -2.16887 | 1429 ft | 98 kts | 258° |
| 2026-04-25 19:40 | 52.46236 | -2.17896 | 1484 ft | 97 kts | 317° |
| 2026-04-25 19:41 | 52.46864 | -2.18060 | 1494 ft | 96 kts | 18° |
| 2026-04-25 19:41 | 52.47283 | -2.17303 | 1535 ft | 93 kts | 74° |
| 2026-04-25 19:41 | 52.47185 | -2.16281 | 1503 ft | 95 kts | 125° |
| 2026-04-25 19:41 | 52.47036 | -2.16035 | 1513 ft | 93 kts | 144° |
| 2026-04-25 19:42 | 52.45985 | -2.16131 | 1414 ft | 101 kts | 217° |
| 2026-04-25 19:42 | 52.45655 | -2.17099 | 1401 ft | 100 kts | 261° |
| 2026-04-25 19:42 | 52.45792 | -2.18216 | 1359 ft | 105 kts | 297° |
| 2026-04-25 19:42 | 52.46322 | -2.19017 | 1269 ft | 110 kts | 336° |
| 2026-04-25 19:43 | 52.47059 | -2.18977 | 1116 ft | 111 kts | 27° |
| 2026-04-25 19:43 | 52.47473 | -2.17952 | 984 ft | 107 kts | 79° |
| 2026-04-25 19:43 | 52.47387 | -2.16865 | 1074 ft | 93 kts | 117° |
| 2026-04-25 19:43 | 52.46942 | -2.16170 | 1143 ft | 89 kts | 153° |
| 2026-04-25 19:44 | 52.46343 | -2.15876 | 1195 ft | 87 kts | 178° |
| 2026-04-25 19:44 | 52.45839 | -2.16355 | 1237 ft | 88 kts | 238° |
| 2026-04-25 19:44 | 52.45812 | -2.17338 | 1257 ft | 93 kts | 294° |
| 2026-04-25 19:44 | 52.46280 | -2.18047 | 1296 ft | 94 kts | 332° |
| 2026-04-25 19:45 | 52.46934 | -2.18138 | 1263 ft | 99 kts | 19° |
| 2026-04-25 19:45 | 52.47402 | -2.17356 | 1236 ft | 99 kts | 66° |
| 2026-04-25 19:45 | 52.47471 | -2.16259 | 1222 ft | 97 kts | 104° |
| 2026-04-25 19:45 | 52.47061 | -2.15425 | 1200 ft | 95 kts | 153° |
| 2026-04-25 19:46 | 52.46430 | -2.15368 | 1206 ft | 93 kts | 199° |
| 2026-04-25 19:46 | 52.45976 | -2.16092 | 1186 ft | 94 kts | 248° |
| 2026-04-25 19:46 | 52.46044 | -2.17122 | 1170 ft | 96 kts | 304° |
| 2026-04-25 19:46 | 52.46583 | -2.17739 | 1136 ft | 96 kts | 329° |
| 2026-04-25 19:47 | 52.47168 | -2.18283 | 1106 ft | 95 kts | 328° |
| 2026-04-25 19:47 | 52.47542 | -2.19087 | 1044 ft | 94 kts | 266° |
| 2026-04-25 19:47 | 52.47277 | -2.20088 | 976 ft | 95 kts | 243° |
| 2026-04-25 19:47 | 52.47021 | -2.21071 | 934 ft | 95 kts | 262° |
| 2026-04-25 19:48 | 52.47248 | -2.22024 | 941 ft | 89 kts | 313° |
| 2026-04-25 19:48 | 52.47703 | -2.22694 | 935 ft | 90 kts | 320° |
| 2026-04-25 19:48 | 52.48210 | -2.23312 | 959 ft | 90 kts | 328° |
| 2026-04-25 19:48 | 52.48773 | -2.23758 | 985 ft | 90 kts | 347° |
| 2026-04-25 19:49 | 52.49396 | -2.23773 | 1022 ft | 89 kts | 1° |
| 2026-04-25 19:49 | 52.49605 | -2.23768 | 1024 ft | 90 kts | 0° |
| 2026-04-25 19:49 | 52.50649 | -2.23788 | 1068 ft | 91 kts | 360° |
| 2026-04-25 19:49 | 52.51292 | -2.24062 | 996 ft | 100 kts | 342° |
| 2026-04-25 19:50 | 52.51575 | -2.26106 | 747 ft | 102 kts | 254° |
| 2026-04-25 19:50 | 52.51352 | -2.27166 | 733 ft | 96 kts | 250° |
| 2026-04-25 19:50 | 52.51439 | -2.28165 | 691 ft | 91 kts | 315° |
| 2026-04-25 19:51 | 52.52000 | -2.28590 | 636 ft | 90 kts | 339° |
| 2026-04-25 19:51 | 52.52582 | -2.28972 | 584 ft | 91 kts | 339° |
| 2026-04-25 19:51 | 52.53167 | -2.29328 | 514 ft | 95 kts | 339° |
| 2026-04-25 19:51 | 52.53787 | -2.29693 | 525 ft | 84 kts | 351° |
| 2026-04-25 19:52 | 52.54127 | -2.29520 | 617 ft | 80 kts | 41° |
| 2026-04-25 19:52 | 52.54440 | -2.28450 | 774 ft | 70 kts | 96° |
| 2026-04-25 19:52 | 52.54255 | -2.28010 | 766 ft | 75 kts | 132° |
| 2026-04-25 19:52 | 52.53838 | -2.27508 | 698 ft | 74 kts | 148° |
| 2026-04-25 19:53 | 52.53356 | -2.27139 | 576 ft | 76 kts | 155° |
| 2026-04-25 19:53 | 52.52872 | -2.26801 | 493 ft | 77 kts | 154° |
| 2026-04-25 19:53 | 52.52392 | -2.26433 | 383 ft | 75 kts | 152° |
| 2026-04-25 19:53 | 52.51976 | -2.26127 | 283 ft | 72 kts | 154° |
| 2026-04-25 19:54 | 52.51617 | -2.25867 | 274 ft | 34 kts | 152° |
| 2026-04-25 19:54 | 52.51484 | -2.25769 | 278 ft | 16 kts | 154° |
| 2026-04-25 19:54 | 52.51386 | -2.25695 | 278 ft | 15 kts | 156° |
| 2026-04-25 19:54 | 52.51323 | -2.25647 | 280 ft | 14 kts | 155° |
| 2026-04-25 19:55 | 52.51256 | -2.25625 | 284 ft | 10 kts | 252° |
| 2026-04-25 19:55 | 52.51252 | -2.25784 | 279 ft | 18 kts | 285° |
| 2026-04-25 19:55 | 52.51311 | -2.25953 | 273 ft | 14 kts | 335° |
| 2026-04-25 19:55 | 52.51426 | -2.26034 | 271 ft | 18 kts | 328° |
| 2026-04-25 19:56 | 52.51491 | -2.26169 | 271 ft | 13 kts | 303° |
| 2026-04-25 19:56 | 52.51517 | -2.26265 | 270 ft | 9 kts | 276° |
| 2026-04-25 19:56 | 52.51525 | -2.26370 | 268 ft | 10 kts | 274° |
| 2026-04-25 19:56 | 52.51532 | -2.26485 | 267 ft | 10 kts | 282° |
| 2026-04-25 19:57 | 52.51577 | -2.26459 | 267 ft | 6 kts | 60° |
| 2026-04-25 19:57 | 52.51566 | -2.26432 | 268 ft | 0 kts | 182° |